Time;durP1;ratioP1;P1;durP2;ratioP2;P2;SDS_P1;SDS_P2;PMS_P1;PMS_P2;Temp;Humidity;BMP_temperature;BMP_pressure;BME280_temperature;BME280_humidity;BME280_pressure;Samples;Min_cycle;Max_cycle;Signal;HPM_P1;HPM_P2
2022/07/09 00:00:01;;;;;;;15.80;9.27;;;14.50;99.90;;;;;;5090905;28;20397;-52
2022/07/09 00:02:26;;;;;;;16.60;10.45;;;14.80;99.90;;;;;;5089399;28;20075;-52
2022/07/09 00:04:52;;;;;;;18.70;10.02;;;14.50;99.90;;;;;;5091152;28;20058;-53
2022/07/09 00:07:18;;;;;;;20.25;11.32;;;14.60;99.90;;;;;;5090547;28;20331;-52
2022/07/09 00:09:43;;;;;;;16.38;10.55;;;14.60;99.90;;;;;;5090773;28;20056;-52
2022/07/09 00:12:09;;;;;;;16.00;10.25;;;14.80;99.90;;;;;;5090157;28;20047;-53
2022/07/09 00:14:35;;;;;;;21.10;10.95;;;15.50;99.90;;;;;;5091060;28;20047;-51
2022/07/09 00:17:01;;;;;;;16.15;8.90;;;14.80;99.90;;;;;;5090970;28;20047;-53
2022/07/09 00:19:26;;;;;;;14.35;9.63;;;14.60;99.90;;;;;;5090699;28;20036;-53
2022/07/09 00:21:52;;;;;;;15.63;9.38;;;14.60;99.90;;;;;;5090397;28;20370;-52
2022/07/09 00:24:18;;;;;;;14.48;9.30;;;14.50;99.90;;;;;;5090618;28;20040;-52
2022/07/09 00:26:44;;;;;;;16.83;9.48;;;14.60;99.90;;;;;;5089407;28;20044;-52
2022/07/09 00:29:09;;;;;;;20.30;9.70;;;14.70;99.90;;;;;;5090145;28;20393;-51
2022/07/09 00:31:35;;;;;;;15.40;8.70;;;14.90;99.90;;;;;;5090674;28;20458;-51
2022/07/09 00:34:01;;;;;;;20.00;9.63;;;14.50;99.90;;;;;;5090727;28;20566;-50
2022/07/09 00:36:27;;;;;;;13.32;8.40;;;14.50;99.90;;;;;;5090178;28;20074;-53
2022/07/09 00:38:52;;;;;;;25.92;9.15;;;14.50;99.90;;;;;;5090832;28;20390;-51
2022/07/09 00:41:18;;;;;;;15.77;8.98;;;14.60;99.90;;;;;;5090227;28;20386;-53
2022/07/09 00:43:50;;;;;;;21.70;8.93;;;14.40;99.90;;;;;;5090611;28;20066;-54
2022/07/09 00:46:17;;;;;;;16.33;8.65;;;14.50;99.90;;;;;;5090147;28;20368;-52
2022/07/09 00:48:43;;;;;;;16.50;8.82;;;14.40;99.90;;;;;;5090559;28;20120;-51
2022/07/09 00:51:11;;;;;;;14.65;8.55;;;14.40;99.90;;;;;;5090233;28;20050;-52
2022/07/09 00:53:37;;;;;;;14.43;8.27;;;14.40;99.90;;;;;;5090302;28;20105;-50
2022/07/09 00:56:05;;;;;;;17.55;8.60;;;14.40;99.90;;;;;;5089972;28;20055;-53
2022/07/09 00:58:31;;;;;;;18.52;8.45;;;14.40;99.90;;;;;;5090128;28;20108;-54
2022/07/09 01:00:56;;;;;;;22.52;9.10;;;14.50;99.90;;;;;;5090069;28;20054;-51
2022/07/09 01:03:22;;;;;;;17.13;8.20;;;14.90;99.90;;;;;;5088972;28;20044;-53
2022/07/09 01:05:49;;;;;;;15.55;7.38;;;14.50;99.90;;;;;;5089955;28;20072;-53
2022/07/09 01:08:15;;;;;;;13.70;7.78;;;14.50;99.90;;;;;;5089782;28;20032;-53
2022/07/09 01:10:41;;;;;;;12.45;7.25;;;14.50;99.90;;;;;;5089156;28;20052;-52
2022/07/09 01:13:06;;;;;;;12.23;6.63;;;14.40;99.90;;;;;;5089732;28;20471;-51
2022/07/09 01:15:33;;;;;;;14.65;7.05;;;14.40;99.90;;;;;;5089741;28;20043;-54
2022/07/09 01:17:59;;;;;;;17.42;8.18;;;14.30;99.90;;;;;;5089840;28;20047;-51
2022/07/09 01:20:26;;;;;;;13.15;7.25;;;14.30;99.90;;;;;;5089569;28;20403;-53
2022/07/09 01:22:52;;;;;;;15.80;7.47;;;14.30;99.90;;;;;;5089492;28;20451;-51
2022/07/09 01:25:19;;;;;;;14.70;6.82;;;14.30;99.90;;;;;;5089498;28;20044;-51
2022/07/09 01:27:45;;;;;;;16.00;7.30;;;14.40;99.90;;;;;;5089662;28;20048;-53
2022/07/09 01:30:22;;;;;;;18.88;7.85;;;14.90;99.90;;;;;;5089775;28;20039;-52
2022/07/09 01:32:48;;;;;;;14.45;7.57;;;14.50;99.90;;;;;;5089588;28;20101;-53
2022/07/09 01:35:14;;;;;;;11.65;6.75;;;14.50;99.90;;;;;;5088220;28;20052;-53
2022/07/09 01:37:39;;;;;;;18.60;7.63;;;14.50;99.90;;;;;;5089784;28;20123;-52
2022/07/09 01:40:06;;;;;;;20.02;8.18;;;14.50;99.90;;;;;;5089874;28;20036;-53
2022/07/09 01:42:32;;;;;;;17.25;7.07;;;14.50;99.90;;;;;;5089130;28;20044;-52
2022/07/09 01:44:57;;;;;;;14.23;6.78;;;14.50;99.90;;;;;;5089327;28;20092;-52
2022/07/09 01:47:23;;;;;;;12.68;6.95;;;14.60;99.90;;;;;;5088855;28;20115;-51
2022/07/09 01:49:48;;;;;;;11.85;6.40;;;14.80;99.90;;;;;;5089387;28;20040;-52
2022/07/09 01:52:14;;;;;;;11.10;7.30;;;14.60;99.90;;;;;;5089544;28;20055;-52
2022/07/09 01:54:40;;;;;;;13.45;7.20;;;14.70;99.90;;;;;;5089360;28;20115;-53
2022/07/09 01:57:06;;;;;;;16.50;7.82;;;14.70;99.90;;;;;;5089507;28;20040;-53
2022/07/09 01:59:31;;;;;;;11.52;6.53;;;15.40;99.90;;;;;;5089224;28;20474;-51
2022/07/09 02:01:57;;;;;;;15.43;6.60;;;14.80;99.90;;;;;;5088912;28;20040;-51
2022/07/09 02:04:23;;;;;;;11.98;6.47;;;15.50;99.90;;;;;;5089253;28;20115;-53
2022/07/09 02:06:49;;;;;;;15.77;7.80;;;15.40;99.90;;;;;;5089365;28;20151;-52
2022/07/09 02:09:14;;;;;;;16.65;7.40;;;14.90;99.90;;;;;;5089247;28;20504;-49
2022/07/09 02:11:40;;;;;;;15.25;7.70;;;15.00;99.90;;;;;;5088018;28;20543;-52
2022/07/09 02:14:06;;;;;;;17.77;9.82;;;14.90;99.90;;;;;;5089032;28;20126;-51
2022/07/09 02:16:31;;;;;;;16.33;9.38;;;15.00;99.90;;;;;;5092176;28;20477;-52
2022/07/09 02:18:57;;;;;;;16.58;7.93;;;15.00;99.90;;;;;;5093719;28;20355;-53
2022/07/09 02:21:23;;;;;;;14.07;8.15;;;15.00;99.90;;;;;;5092666;28;20478;-52
2022/07/09 02:23:48;;;;;;;18.23;8.25;;;15.00;99.90;;;;;;5093347;28;20039;-51
2022/07/09 02:26:14;;;;;;;21.52;9.55;;;15.00;99.90;;;;;;5092797;28;20143;-51
2022/07/09 02:28:41;;;;;;;15.93;7.95;;;15.00;99.90;;;;;;5092752;28;20040;-52
2022/07/09 02:31:09;;;;;;;15.20;7.88;;;14.90;99.90;;;;;;5092666;28;20074;-53
2022/07/09 02:33:34;;;;;;;19.40;8.82;;;15.30;99.90;;;;;;5092568;28;20119;-53
2022/07/09 02:36:00;;;;;;;18.35;7.85;;;14.90;99.90;;;;;;5093067;28;20466;-52
2022/07/09 02:38:26;;;;;;;17.55;7.85;;;14.80;99.90;;;;;;5092623;28;20461;-53
2022/07/09 02:40:52;;;;;;;15.43;7.88;;;14.80;99.90;;;;;;5092734;28;20497;-53
2022/07/09 02:43:17;;;;;;;19.33;8.57;;;14.80;99.90;;;;;;5092580;28;20040;-51
2022/07/09 02:45:43;;;;;;;21.75;9.70;;;14.70;99.90;;;;;;5092429;28;20118;-52
2022/07/09 02:48:09;;;;;;;16.55;8.32;;;14.70;99.90;;;;;;5092387;28;20071;-52
2022/07/09 02:50:34;;;;;;;24.02;10.32;;;14.70;99.90;;;;;;5092272;28;20141;-51
2022/07/09 02:53:00;;;;;;;16.85;9.27;;;14.70;99.90;;;;;;5090872;28;20055;-46
2022/07/09 02:55:25;;;;;;;15.05;8.73;;;14.80;99.90;;;;;;5092387;28;20036;-53
2022/07/09 02:57:51;;;;;;;20.17;10.05;;;14.70;99.90;;;;;;5090813;28;20435;-53
2022/07/09 03:00:17;;;;;;;18.48;9.82;;;14.80;99.90;;;;;;5092554;28;20134;-52
2022/07/09 03:02:42;;;;;;;17.55;9.02;;;15.00;99.90;;;;;;5090380;28;20076;-52
2022/07/09 03:05:09;;;;;;;23.17;10.15;;;14.90;99.90;;;;;;5092155;28;20036;-53
2022/07/09 03:07:34;;;;;;;18.70;10.00;;;15.20;99.90;;;;;;5091853;28;20401;-51
2022/07/09 03:10:00;;;;;;;19.38;9.23;;;14.90;99.90;;;;;;5091594;28;20048;-53
2022/07/09 03:12:26;;;;;;;19.25;9.63;;;14.90;99.90;;;;;;5091909;28;20555;-52
2022/07/09 03:14:51;;;;;;;25.02;10.73;;;15.10;99.90;;;;;;5092359;28;20040;-53
2022/07/09 03:17:17;;;;;;;17.35;10.38;;;15.00;99.90;;;;;;5091816;28;20048;-53
2022/07/09 03:19:42;;;;;;;17.00;9.18;;;15.10;99.90;;;;;;5090272;28;20089;-53
2022/07/09 03:22:08;;;;;;;21.38;9.35;;;15.00;99.90;;;;;;5091608;28;20097;-53
2022/07/09 03:24:34;;;;;;;23.60;10.40;;;15.10;99.90;;;;;;5090171;28;20048;-51
2022/07/09 03:26:59;;;;;;;19.58;10.68;;;15.10;99.90;;;;;;5090818;28;20044;-52
2022/07/09 03:29:25;;;;;;;17.42;10.23;;;14.90;99.90;;;;;;5091702;28;20028;-53
2022/07/09 03:31:51;;;;;;;19.20;10.25;;;14.90;99.90;;;;;;5090049;28;20458;-52
2022/07/09 03:34:17;;;;;;;27.00;10.45;;;14.80;99.90;;;;;;5091755;28;20044;-52
2022/07/09 03:36:42;;;;;;;17.80;9.55;;;14.80;99.90;;;;;;5091329;28;20050;-51
2022/07/09 03:39:08;;;;;;;20.13;9.68;;;14.80;99.90;;;;;;5091675;28;20048;-53
2022/07/09 03:41:34;;;;;;;15.57;8.27;;;14.70;99.90;;;;;;5091143;28;20044;-53
2022/07/09 03:43:59;;;;;;;22.23;10.07;;;14.60;99.90;;;;;;5091286;28;20087;-53
2022/07/09 03:46:25;;;;;;;18.77;9.88;;;14.60;99.90;;;;;;5091394;28;20050;-52
2022/07/09 03:48:51;;;;;;;18.98;8.93;;;14.50;99.90;;;;;;5091252;28;20478;-51
2022/07/09 03:51:17;;;;;;;21.35;9.40;;;14.70;99.90;;;;;;5091267;28;20490;-51
2022/07/09 03:53:42;;;;;;;17.02;9.32;;;14.60;99.90;;;;;;5090927;28;20367;-50
2022/07/09 03:56:08;;;;;;;16.92;8.77;;;14.80;99.90;;;;;;5091318;28;20042;-53
2022/07/09 03:58:34;;;;;;;23.30;8.35;;;14.90;99.90;;;;;;5091095;28;20131;-52
2022/07/09 04:00:59;;;;;;;20.38;8.63;;;14.60;99.90;;;;;;5091388;28;20290;-52
2022/07/09 04:03:25;;;;;;;20.05;9.23;;;14.90;99.90;;;;;;5091258;28;20036;-51
2022/07/09 04:05:50;;;;;;;15.88;8.30;;;14.70;99.90;;;;;;5090870;28;20105;-51
2022/07/09 04:08:16;;;;;;;17.35;8.30;;;14.70;99.90;;;;;;5091254;28;20470;-52
2022/07/09 04:10:42;;;;;;;17.30;7.88;;;15.00;99.90;;;;;;5088864;28;20063;-53
2022/07/09 04:13:07;;;;;;;21.35;8.27;;;14.80;99.90;;;;;;5089543;28;20048;-53
2022/07/09 04:15:33;;;;;;;20.88;8.95;;;14.80;99.90;;;;;;5090924;28;20089;-53
2022/07/09 04:17:59;;;;;;;19.83;8.70;;;14.80;99.90;;;;;;5089434;28;20081;-52
2022/07/09 04:20:25;;;;;;;15.32;8.73;;;14.90;99.90;;;;;;5090564;28;20116;-52
2022/07/09 04:22:51;;;;;;;15.85;8.50;;;15.10;99.90;;;;;;5090791;28;20101;-53
2022/07/09 04:25:17;;;;;;;14.27;8.38;;;15.40;99.90;;;;;;5091217;28;20039;-51
2022/07/09 04:27:43;;;;;;;13.52;8.02;;;15.00;99.90;;;;;;5091081;28;20441;-53
2022/07/09 04:30:10;;;;;;;20.48;9.35;;;15.00;99.90;;;;;;5089351;28;20036;-52
2022/07/09 04:32:37;;;;;;;19.10;8.88;;;15.10;99.90;;;;;;5090615;28;20055;-53
2022/07/09 04:35:03;;;;;;;15.75;8.05;;;15.10;99.90;;;;;;5090572;28;20036;-50
2022/07/09 04:37:29;;;;;;;14.00;7.75;;;15.10;99.90;;;;;;5090600;28;20283;-52
2022/07/09 04:39:54;;;;;;;14.02;7.80;;;15.20;99.90;;;;;;5089951;28;20059;-52
2022/07/09 04:42:20;;;;;;;15.85;8.02;;;15.30;99.90;;;;;;5090226;28;20127;-53
2022/07/09 04:44:46;;;;;;;12.30;6.85;;;15.30;99.90;;;;;;5090236;28;20127;-52
2022/07/09 04:47:12;;;;;;;17.55;8.85;;;15.40;99.90;;;;;;5090279;28;20089;-52
2022/07/09 04:49:38;;;;;;;14.02;6.72;;;15.40;99.90;;;;;;5090130;28;20036;-50
2022/07/09 04:52:05;;;;;;;13.68;6.57;;;15.70;99.90;;;;;;5090309;28;20211;-50
2022/07/09 04:54:31;;;;;;;11.40;6.95;;;15.50;99.90;;;;;;5090294;28;20094;-51
2022/07/09 04:56:56;;;;;;;13.82;6.57;;;15.60;99.90;;;;;;5090357;28;20079;-52
2022/07/09 04:59:22;;;;;;;13.23;6.72;;;15.70;99.90;;;;;;5088530;28;20047;-52
2022/07/09 05:01:49;;;;;;;14.18;6.57;;;15.70;99.90;;;;;;5090115;28;20036;-52
2022/07/09 05:04:15;;;;;;;13.77;6.65;;;15.80;99.90;;;;;;5089987;28;20046;-52
2022/07/09 05:06:41;;;;;;;15.93;5.80;;;15.90;99.90;;;;;;5090225;28;20108;-52
2022/07/09 05:09:07;;;;;;;13.18;6.60;;;15.90;99.90;;;;;;5090196;28;20051;-52
2022/07/09 05:11:34;;;;;;;10.75;6.45;;;16.00;99.90;;;;;;5089316;28;20052;-51
2022/07/09 05:13:59;;;;;;;12.00;6.15;;;16.00;99.90;;;;;;5089637;28;20072;-52
2022/07/09 05:16:25;;;;;;;9.45;5.90;;;16.10;99.90;;;;;;5090054;28;20071;-50
2022/07/09 05:18:51;;;;;;;13.02;7.00;;;16.20;99.90;;;;;;5089575;28;20183;-53
2022/07/09 05:21:17;;;;;;;9.93;5.47;;;16.30;99.90;;;;;;5090208;28;20485;-52
2022/07/09 05:23:42;;;;;;;10.48;6.63;;;16.40;99.90;;;;;;5087725;28;20402;-52
2022/07/09 05:26:08;;;;;;;11.38;6.10;;;16.50;99.90;;;;;;5088520;28;20126;-52
2022/07/09 05:28:34;;;;;;;10.32;5.30;;;16.80;99.90;;;;;;5089711;28;20036;-51
2022/07/09 05:30:59;;;;;;;8.80;6.05;;;16.80;99.90;;;;;;5089703;28;20153;-52
2022/07/09 05:33:25;;;;;;;8.40;5.00;;;16.70;99.90;;;;;;5089427;28;20048;-53
2022/07/09 05:35:52;;;;;;;9.68;6.03;;;16.80;99.90;;;;;;5089287;28;20044;-51
2022/07/09 05:38:17;;;;;;;11.90;4.63;;;17.00;99.90;;;;;;5089739;28;20048;-51
2022/07/09 05:40:43;;;;;;;10.45;4.60;;;17.50;99.90;;;;;;5089295;28;20086;-53
2022/07/09 05:43:09;;;;;;;9.30;5.75;;;17.70;99.90;;;;;;5089246;28;20187;-52
2022/07/09 05:45:34;;;;;;;13.25;4.07;;;18.00;99.90;;;;;;5089635;28;20051;-53
2022/07/09 05:48:00;;;;;;;8.93;3.75;;;18.10;99.90;;;;;;5088002;28;20111;-53
2022/07/09 05:50:26;;;;;;;6.47;4.20;;;18.10;99.90;;;;;;5089213;28;20040;-53
2022/07/09 05:52:51;;;;;;;7.72;4.20;;;18.10;99.90;;;;;;5093314;28;20032;-52
2022/07/09 05:55:17;;;;;;;9.35;4.00;;;18.10;99.90;;;;;;5093268;28;20114;-53
2022/07/09 05:57:42;;;;;;;7.40;4.35;;;18.10;99.90;;;;;;5091912;28;20080;-52
2022/07/09 06:00:09;;;;;;;7.60;4.05;;;18.20;99.90;;;;;;5093023;28;20123;-52
2022/07/09 06:02:34;;;;;;;13.40;3.95;;;18.10;99.90;;;;;;5093194;28;20059;-53
2022/07/09 06:05:00;;;;;;;9.15;3.63;;;18.20;99.90;;;;;;5093347;28;20036;-51
2022/07/09 06:07:25;;;;;;;6.78;3.40;;;18.10;99.90;;;;;;5093115;28;20051;-52
2022/07/09 06:09:51;;;;;;;11.13;3.60;;;18.20;99.90;;;;;;5092028;28;20060;-51
2022/07/09 06:12:17;;;;;;;7.10;3.78;;;18.20;99.90;;;;;;5093082;28;20044;-52
2022/07/09 06:14:42;;;;;;;6.03;3.08;;;18.30;99.90;;;;;;5093669;28;20071;-53
2022/07/09 06:17:08;;;;;;;6.38;3.28;;;18.30;99.90;;;;;;5093134;28;20040;-52
2022/07/09 06:19:34;;;;;;;9.45;3.40;;;18.30;99.90;;;;;;5093124;28;20562;-52
2022/07/09 06:22:01;;;;;;;9.10;4.35;;;18.30;99.90;;;;;;5093033;28;20064;-51
2022/07/09 06:24:27;;;;;;;7.28;3.22;;;18.40;99.90;;;;;;5093133;28;20090;-52
2022/07/09 06:26:52;;;;;;;5.50;2.67;;;18.40;99.90;;;;;;5091148;28;20048;-54
2022/07/09 06:29:19;;;;;;;6.93;2.97;;;18.40;99.90;;;;;;5093047;28;20032;-53
2022/07/09 06:31:45;;;;;;;6.40;2.65;;;18.30;99.90;;;;;;5092368;28;20050;-53
2022/07/09 06:34:11;;;;;;;6.47;3.53;;;18.40;99.90;;;;;;5092593;28;20699;-53
2022/07/09 06:36:38;;;;;;;5.28;2.90;;;18.40;99.90;;;;;;5092906;28;20443;-52
2022/07/09 06:41:48;;;;;;;8.18;3.33;;;18.30;99.90;;;;;;5092405;28;20044;-51
2022/07/09 06:44:13;;;;;;;7.47;2.90;;;18.30;99.90;;;;;;5092509;28;20036;-53
2022/07/09 06:46:39;;;;;;;5.35;2.72;;;18.40;99.90;;;;;;5092692;28;20059;-54
2022/07/09 06:49:05;;;;;;;6.07;2.67;;;18.50;99.90;;;;;;5092748;28;20032;-52
2022/07/09 06:51:31;;;;;;;5.90;2.88;;;18.50;99.90;;;;;;5092643;28;20179;-52
2022/07/09 06:53:57;;;;;;;4.38;2.20;;;18.80;99.90;;;;;;5091222;28;20115;-52
2022/07/09 06:56:23;;;;;;;4.25;2.33;;;18.70;99.90;;;;;;5092592;28;20040;-53
2022/07/09 06:58:49;;;;;;;9.00;2.85;;;18.90;99.90;;;;;;5092824;28;20097;-53
2022/07/09 07:01:14;;;;;;;5.75;2.78;;;19.00;99.90;;;;;;5092085;28;20482;-53
2022/07/09 07:03:40;;;;;;;4.88;2.03;;;19.10;99.90;;;;;;5092604;28;20545;-53
2022/07/09 07:06:06;;;;;;;4.25;2.00;;;19.10;99.90;;;;;;5091996;28;20036;-52
2022/07/09 07:08:32;;;;;;;5.53;2.20;;;19.10;99.90;;;;;;5091864;28;20055;-52
2022/07/09 07:10:57;;;;;;;3.35;1.92;;;19.00;99.90;;;;;;5090800;28;20084;-51
2022/07/09 07:13:23;;;;;;;5.45;2.10;;;19.00;99.90;;;;;;5092030;28;20040;-49
2022/07/09 07:15:50;;;;;;;6.18;2.17;;;21.30;99.90;;;;;;5092153;28;20081;-53
2022/07/09 07:18:17;;;;;;;4.25;2.17;;;18.90;99.90;;;;;;5091653;28;20086;-52
2022/07/09 07:20:43;;;;;;;4.85;2.15;;;18.90;99.90;;;;;;5091816;28;20470;-53
2022/07/09 07:23:09;;;;;;;5.38;2.33;;;18.90;99.90;;;;;;5091946;28;20425;-53
2022/07/09 07:25:35;;;;;;;4.35;2.05;;;18.90;99.90;;;;;;5091668;28;20035;-52
2022/07/09 07:28:02;;;;;;;6.60;2.53;;;18.90;99.90;;;;;;5091483;28;20068;-51
2022/07/09 07:30:28;;;;;;;4.53;1.83;;;19.00;99.90;;;;;;5091663;28;20393;-52
2022/07/09 07:32:53;;;;;;;4.97;2.35;;;19.00;99.90;;;;;;5091719;28;20047;-51
2022/07/09 07:35:19;;;;;;;5.35;2.15;;;19.00;99.90;;;;;;5091104;28;20424;-52
2022/07/09 07:37:45;;;;;;;4.32;2.05;;;19.10;99.90;;;;;;5073070;28;20044;-53
2022/07/09 07:40:11;;;;;;;3.58;1.40;;;19.30;99.90;;;;;;5091485;28;20046;-53
2022/07/09 07:42:37;;;;;;;4.28;1.90;;;19.40;99.90;;;;;;5091585;28;20082;-52
2022/07/09 07:45:03;;;;;;;3.50;1.40;;;19.60;99.90;;;;;;5091537;28;20507;-53
2022/07/09 07:47:29;;;;;;;5.70;1.95;;;19.80;99.90;;;;;;5091601;28;20438;-53
2022/07/09 07:49:55;;;;;;;3.65;1.35;;;20.10;99.90;;;;;;5091400;28;20123;-50
2022/07/09 07:52:20;;;;;;;3.63;1.40;;;21.20;99.90;;;;;;5089795;28;20047;-54
2022/07/09 07:54:46;;;;;;;4.90;1.17;;;22.40;99.90;;;;;;5091367;28;20490;-54
2022/07/09 07:57:11;;;;;;;3.60;0.70;;;23.70;99.90;;;;;;5091330;28;20119;-53
2022/07/09 07:59:37;;;;;;;3.60;1.00;;;24.70;99.90;;;;;;5091217;28;20264;-52
2022/07/09 08:02:03;;;;;;;5.57;1.25;;;25.10;99.90;;;;;;5091036;28;20047;-54
2022/07/09 08:04:29;;;;;;;3.72;0.70;;;24.90;99.90;;;;;;5091252;28;20831;-53
2022/07/09 08:06:54;;;;;;;2.80;0.68;;;24.70;99.90;;;;;;5091227;28;20050;-54
2022/07/09 08:09:20;;;;;;;4.18;0.70;;;24.60;99.90;;;;;;5090919;28;20035;-54
2022/07/09 08:11:46;;;;;;;2.05;0.45;;;24.60;99.70;;;;;;5090255;28;20059;-54
2022/07/09 08:14:12;;;;;;;4.55;0.68;;;24.40;99.50;;;;;;5090463;28;20128;-53
2022/07/09 08:16:37;;;;;;;3.75;0.60;;;24.40;99.00;;;;;;5091241;28;20040;-53
2022/07/09 08:19:03;;;;;;;3.50;0.68;;;24.50;98.50;;;;;;5090741;28;20083;-52
2022/07/09 08:21:29;;;;;;;4.30;0.70;;;24.50;97.60;;;;;;5090770;28;20036;-54
2022/07/09 08:23:55;;;;;;;3.20;0.85;;;24.60;97.10;;;;;;5090982;28;20497;-54
2022/07/09 08:26:22;;;;;;;1.70;0.45;;;24.40;96.70;;;;;;5088907;28;20051;-52
2022/07/09 08:28:48;;;;;;;4.38;0.57;;;24.70;96.40;;;;;;5089027;28;20040;-53
2022/07/09 08:31:19;;;;;;;3.85;0.70;;;25.60;95.30;;;;;;5090396;28;20036;-54
2022/07/09 08:33:45;;;;;;;2.45;0.60;;;26.50;94.20;;;;;;5090740;28;20067;-52
2022/07/09 08:36:11;;;;;;;3.85;0.40;;;27.90;92.60;;;;;;5090531;28;20050;-54
2022/07/09 08:38:36;;;;;;;4.85;0.40;;;29.40;90.80;;;;;;5088850;28;20048;-55
2022/07/09 08:41:05;;;;;;;2.20;0.88;;;30.90;86.20;;;;;;5089848;28;20044;-55
2022/07/09 08:43:36;;;;;;;4.07;0.73;;;32.00;81.10;;;;;;5090230;28;20500;-54
2022/07/09 08:46:02;;;;;;;3.20;0.50;;;32.10;75.60;;;;;;5090213;28;20032;-54
2022/07/09 08:48:31;;;;;;;3.72;0.82;;;31.20;74.60;;;;;;5071610;28;20072;-54
2022/07/09 08:50:57;;;;;;;2.55;0.50;;;30.50;74.40;;;;;;5091188;28;20058;-54
2022/07/09 08:53:23;;;;;;;2.38;0.32;;;30.50;74.70;;;;;;5089437;28;20097;-54
2022/07/09 08:55:50;;;;;;;4.18;0.35;;;29.90;74.00;;;;;;5090976;28;20035;-55
2022/07/09 08:58:16;;;;;;;3.33;0.50;;;28.70;76.40;;;;;;5089124;28;20405;-53
2022/07/09 09:00:41;;;;;;;2.03;0.30;;;28.50;74.40;;;;;;5090652;28;20044;-54
2022/07/09 09:03:08;;;;;;;2.85;0.52;;;27.90;76.00;;;;;;5090958;28;20044;-54
2022/07/09 09:05:33;;;;;;;2.97;0.77;;;27.50;77.50;;;;;;5090864;28;20133;-54
2022/07/09 09:07:59;;;;;;;4.35;0.30;;;28.00;79.00;;;;;;5090902;28;20493;-54
2022/07/09 09:10:29;;;;;;;1.92;0.45;;;28.80;76.70;;;;;;5089893;28;20430;-54
2022/07/09 09:13:00;;;;;;;3.15;0.22;;;29.70;74.70;;;;;;5090363;28;20097;-55
2022/07/09 09:15:27;;;;;;;6.18;0.77;;;31.60;72.70;;;;;;5090654;28;20066;-55
2022/07/09 09:17:52;;;;;;;1.75;0.38;;;33.30;69.20;;;;;;5089352;28;20567;-55
2022/07/09 09:20:19;;;;;;;3.35;0.30;;;34.30;65.60;;;;;;5089814;28;20031;-55
2022/07/09 09:22:50;;;;;;;2.28;0.30;;;34.70;63.00;;;;;;5090000;28;20040;-56
2022/07/09 09:25:19;;;;;;;2.55;0.20;;;34.70;63.10;;;;;;5086497;28;20040;-56
2022/07/09 09:27:56;;;;;;;2.92;0.47;;;34.40;61.00;;;;;;5088052;28;20039;-55
2022/07/09 09:30:23;;;;;;;2.08;0.35;;;33.90;59.20;;;;;;5088047;28;20044;-55
2022/07/09 09:33:03;;;;;;;3.67;0.38;;;32.50;59.50;;;;;;5088544;28;20419;-55
2022/07/09 09:35:34;;;;;;;3.83;0.60;;;31.40;60.60;;;;;;5088164;28;20032;-55
2022/07/09 09:38:00;;;;;;;3.30;0.50;;;30.70;62.80;;;;;;5086328;28;20044;-56
2022/07/09 09:40:26;;;;;;;3.33;0.32;;;31.10;64.20;;;;;;5087195;28;20044;-55
2022/07/09 09:42:56;;;;;;;2.97;0.28;;;31.70;63.80;;;;;;5085688;28;20055;-55
2022/07/09 09:45:23;;;;;;;2.28;0.20;;;31.80;62.80;;;;;;5087767;28;20040;-55
2022/07/09 09:47:50;;;;;;;1.58;0.20;;;32.30;62.50;;;;;;5087456;28;20505;-56
2022/07/09 09:50:25;;;;;;;1.55;0.30;;;33.00;62.00;;;;;;5087772;28;20036;-55
2022/07/09 09:52:54;;;;;;;1.42;0.20;;;33.70;61.00;;;;;;5087547;28;20242;-56
2022/07/09 09:55:21;;;;;;;2.00;0.25;;;33.60;59.00;;;;;;5087563;28;20083;-55
2022/07/09 09:57:48;;;;;;;4.63;0.50;;;32.70;58.30;;;;;;5087149;28;20039;-56
2022/07/09 10:00:15;;;;;;;3.03;0.40;;;31.60;58.10;;;;;;5087195;28;20534;-55
2022/07/09 10:02:46;;;;;;;5.13;0.40;;;30.70;59.50;;;;;;5087104;28;20240;-55
2022/07/09 10:05:12;;;;;;;5.30;0.60;;;30.70;61.40;;;;;;5087970;28;20040;-56
2022/07/09 10:07:43;;;;;;;4.22;0.55;;;31.60;61.90;;;;;;5089389;28;20048;-55
2022/07/09 10:10:16;;;;;;;5.15;0.30;;;32.30;59.90;;;;;;5089617;28;20056;-55
2022/07/09 10:12:41;;;;;;;4.32;0.50;;;32.20;58.70;;;;;;5087529;28;20401;-55
2022/07/09 10:15:27;;;;;;;2.95;0.57;;;32.10;59.50;;;;;;5089823;28;20044;-55
2022/07/09 10:17:54;;;;;;;5.95;0.80;;;32.10;56.30;;;;;;5089509;28;20055;-56
2022/07/09 10:20:31;;;;;;;1.75;0.30;;;32.50;58.50;;;;;;5089517;28;20477;-55
2022/07/09 10:22:57;;;;;;;2.95;0.35;;;32.50;55.60;;;;;;5089815;28;20115;-54
2022/07/09 10:25:31;;;;;;;2.28;0.60;;;31.70;57.40;;;;;;5088701;28;20123;-54
2022/07/09 10:27:57;;;;;;;4.75;0.50;;;31.30;58.00;;;;;;5090322;28;20044;-54
2022/07/09 10:30:29;;;;;;;4.30;0.43;;;32.20;59.40;;;;;;5090459;28;20074;-54
2022/07/09 10:33:06;;;;;;;5.22;0.65;;;33.30;58.90;;;;;;5088908;28;20052;-55
2022/07/09 10:35:39;;;;;;;1.65;0.20;;;34.80;58.70;;;;;;5071281;28;20044;-55
2022/07/09 10:38:04;;;;;;;5.85;0.55;;;36.10;54.80;;;;;;5091382;28;20722;-54
2022/07/09 10:40:42;;;;;;;1.73;0.20;;;37.00;53.60;;;;;;5091435;28;20081;-54
2022/07/09 10:43:08;;;;;;;2.45;0.30;;;36.70;52.00;;;;;;5093058;28;20043;-55
2022/07/09 10:45:34;;;;;;;2.63;0.30;;;36.40;51.50;;;;;;5093803;28;20075;-55
2022/07/09 10:48:01;;;;;;;2.40;0.30;;;36.80;51.60;;;;;;5093898;28;20067;-54
2022/07/09 10:50:29;;;;;;;3.45;0.40;;;36.40;50.70;;;;;;5093804;28;20036;-54
2022/07/09 10:52:55;;;;;;;2.80;0.40;;;36.20;49.60;;;;;;5093885;28;20059;-53
2022/07/09 10:55:26;;;;;;;2.63;0.30;;;36.30;49.50;;;;;;5093845;28;20047;-52
2022/07/09 10:57:53;;;;;;;4.47;0.40;;;36.10;50.70;;;;;;5094030;28;20044;-52
2022/07/09 11:00:26;;;;;;;4.20;0.50;;;35.20;51.40;;;;;;5093956;28;20051;-53
2022/07/09 11:03:12;;;;;;;3.28;0.32;;;34.10;52.80;;;;;;5093916;28;20453;-53
2022/07/09 11:05:45;;;;;;;3.22;0.30;;;32.90;53.60;;;;;;5093031;28;20048;-52
2022/07/09 11:08:11;;;;;;;2.97;0.30;;;32.20;53.80;;;;;;5093449;28;20068;-54
2022/07/09 11:10:39;;;;;;;3.03;0.30;;;31.50;55.50;;;;;;5092609;28;20591;-53
2022/07/09 11:13:06;;;;;;;3.08;0.38;;;31.10;57.10;;;;;;5093463;28;20044;-53
2022/07/09 11:15:34;;;;;;;4.43;0.47;;;30.40;57.80;;;;;;5093458;28;20036;-54
2022/07/09 11:18:07;;;;;;;6.05;0.40;;;29.90;58.40;;;;;;5092314;28;20086;-54
2022/07/09 11:20:44;;;;;;;5.25;0.50;;;29.30;59.70;;;;;;5089955;28;20040;-54
2022/07/09 11:23:15;;;;;;;3.95;0.70;;;28.60;59.90;;;;;;5090322;28;20051;-54
2022/07/09 11:25:46;;;;;;;8.90;0.77;;;28.20;62.00;;;;;;5087697;28;20484;-55
2022/07/09 11:28:21;;;;;;;3.85;1.08;;;27.90;62.90;;;;;;5090553;28;20046;-54
2022/07/09 11:31:01;;;;;;;8.75;0.57;;;27.80;63.90;;;;;;5089964;28;20390;-54
2022/07/09 11:33:27;;;;;;;5.95;0.50;;;27.50;63.90;;;;;;5090464;28;20051;-54
2022/07/09 11:35:52;;;;;;;7.38;0.90;;;27.30;63.90;;;;;;5090143;28;20541;-54
2022/07/09 11:38:18;;;;;;;7.38;1.27;;;27.10;65.50;;;;;;5089986;28;20127;-52
2022/07/09 11:40:44;;;;;;;6.32;1.00;;;26.90;65.10;;;;;;5089540;28;20100;-54
2022/07/09 11:43:15;;;;;;;4.50;1.05;;;25.20;65.00;;;;;;5089105;28;20040;-55
2022/07/09 11:45:51;;;;;;;4.10;0.40;;;26.80;66.90;;;;;;5088302;28;20036;-54
2022/07/09 11:48:16;;;;;;;6.25;0.77;;;26.60;65.90;;;;;;5089274;28;20040;-54
2022/07/09 11:50:44;;;;;;;4.35;1.00;;;26.40;66.20;;;;;;5088346;28;20093;-53
2022/07/09 11:53:23;;;;;;;6.93;1.58;;;26.40;66.90;;;;;;5090181;28;20390;-55
2022/07/09 11:56:03;;;;;;;5.03;0.73;;;26.40;67.50;;;;;;5088677;28;20040;-55
2022/07/09 11:58:29;;;;;;;5.07;0.95;;;26.30;67.10;;;;;;5089905;28;20048;-55
2022/07/09 12:00:56;;;;;;;3.53;0.90;;;26.30;68.20;;;;;;5089665;28;20051;-54
2022/07/09 12:03:26;;;;;;;3.65;0.50;;;26.40;67.10;;;;;;5089767;28;20377;-54
2022/07/09 12:05:52;;;;;;;5.15;0.65;;;26.30;65.80;;;;;;5088280;28;20035;-53
2022/07/09 12:08:29;;;;;;;2.67;0.60;;;26.10;66.10;;;;;;5090116;28;20059;-54
2022/07/09 12:10:56;;;;;;;3.72;0.40;;;25.90;65.10;;;;;;5087595;28;20142;-54
2022/07/09 12:13:21;;;;;;;3.75;0.32;;;25.70;66.30;;;;;;5089641;28;20047;-55
2022/07/09 12:15:47;;;;;;;5.82;0.57;;;25.60;67.00;;;;;;5089632;28;20046;-55
2022/07/09 12:18:13;;;;;;;6.43;0.43;;;25.30;67.30;;;;;;5089566;28;20040;-54
2022/07/09 12:20:39;;;;;;;5.22;0.65;;;25.10;67.00;;;;;;5089417;28;20111;-54
2022/07/09 12:23:04;;;;;;;3.35;0.30;;;24.80;65.80;;;;;;5089602;28;20441;-54
2022/07/09 12:25:30;;;;;;;7.78;0.60;;;24.60;66.10;;;;;;5089289;28;20040;-54
2022/07/09 12:27:56;;;;;;;3.38;0.32;;;24.50;66.70;;;;;;5089310;28;20067;-54
2022/07/09 12:30:21;;;;;;;4.72;0.30;;;24.30;67.50;;;;;;5089820;28;20527;-54
2022/07/09 12:32:48;;;;;;;5.50;0.30;;;24.30;67.60;;;;;;5089223;28;20100;-53
2022/07/09 12:35:14;;;;;;;3.75;0.70;;;24.40;67.80;;;;;;5087245;28;20482;-54
2022/07/09 12:37:40;;;;;;;2.33;0.25;;;24.50;66.10;;;;;;5089200;28;20050;-54
2022/07/09 12:40:07;;;;;;;2.78;0.32;;;24.40;65.40;;;;;;5088945;28;20044;-54